Scotland, TX (76379)

10:23 AM CDT on August 29, 2014 (GMT -0500)
Archer City | Change Station
CLOSE
Current Station
Personal Weather Station
Location: Archer City, TX
Elevation: 1089 ft
Nearby Weather Stations

Elev 1089 ft 33.58 °N, 98.63 °W | Updated 3 seconds ago

Mostly Cloudy
Mostly Cloudy
74.8 °F
Feels Like 73 °F
N
7.6
Wind Variable Wind from West
Gusts 7.6 mph

Today
High -- | Low -- °F
--% Chance of Precip.
Yesterday
High -- | Low -- °F
Precip. -- in
7:05 AM 8:03 PM
Waxing Crescent, 15% visible
Pressure 29.96 in
Visibility 10.0 miles
Clouds Scattered Clouds 900 ft
Scattered Clouds 12000 ft
Heat Index 73 °F
Dew Point 74 °F
Humidity 96%
Rainfall 0.27 in
Snow Depth Not available.
UV 4 out of 12
Pollen 8.50 out of 12
Air Quality Not available.
Flu Activity Not available.
METAR KCWC 291515Z AUTO 26011KT 10SM -RA SCT009 SCT120 24/20 A2996 RMK AO2 LTG DSNT E AND W T02350200

More Conditions Fewer Conditions

Pressure 29.96 in
Visibility 10.0 miles
Clouds Scattered Clouds 900 ft
Scattered Clouds 12000 ft
Heat Index 73 °F
Dew Point 74 °F
Humidity 96%
Rainfall 0.27 in
Snow Depth Not available.
UV 4 out of 12
Pollen 8.50 out of 12
Air Quality Not available.
Flu Activity Not available.
METAR KCWC 291515Z AUTO 26011KT 10SM -RA SCT009 SCT120 24/20 A2996 RMK AO2 LTG DSNT E AND W T02350200

More Conditions Fewer Conditions

10-Day Weather Forecast

Almanac

Astronomy

Aug. 29, 2014 Rise Set
Actual Time 7:05 AM CDT 8:03 PM CDT
Civil Twilight 6:40 AM CDT 8:28 PM CDT
Nautical Twilight 6:09 AM CDT 8:58 PM CDT
Astronomical Twilight 5:38 AM CDT 9:29 PM CDT
Moon 10:43 AM CDT 10:15 PM CDT
Length of Visible Light 13h 48m
Length of Day
12h 57m
Tomorrow will be 1m 59s shorter.
Waxing Crescent, 15% of the Moon is Illuminated
Today
Waxing Crescent
Sep 2
First Quarter
Sep 8
Full
Sep 15
Last Quarter
Sep 24
New

Today's Extremes

State Highs State Lows

Community

WunderPhotos

Upload Photos

1,748,263 photos uploaded!

Nearby

Snow Depth

Station Depth Elevation
No new snow has been reported.

Earthquake Activity

City Distance Mag. Time & Date
No recent earthquake activity has been reported nearby.
Minimum magnitude displayed is 2.5.

Coastal Water Temperatures

Place Temperature
No Stations Reporting

Nearby Weather Stations